createdAt,value
2023-03-21T00:00:57.336Z,100971.13
2023-03-21T00:02:01.154Z,100927.31
2023-03-21T00:03:04.954Z,100979.88
2023-03-21T00:04:08.709Z,100976.44
2023-03-21T00:05:15.869Z,100980.44
2023-03-21T00:06:19.811Z,100981.41
2023-03-21T00:07:23.554Z,100984.63
2023-03-21T00:08:28.121Z,100990.41
2023-03-21T00:09:31.691Z,100987.53
2023-03-21T00:11:58.994Z,100993.56
2023-03-21T00:13:02.642Z,100998.19
2023-03-21T00:14:06.391Z,100994.03
2023-03-21T00:15:13.605Z,101003.59
2023-03-21T00:16:27.447Z,100995.91
2023-03-21T00:17:42.287Z,100999.09
2023-03-21T00:18:47.440Z,101002.84
2023-03-21T00:19:54.229Z,101010.31
2023-03-21T00:21:29.326Z,101005.41
2023-03-21T00:22:23.090Z,101005.66
2023-03-21T00:23:27.479Z,101007.34
2023-03-21T00:24:31.201Z,101009.06
2023-03-21T00:25:34.950Z,101010.59
2023-03-21T00:26:38.678Z,100998.94
2023-03-21T00:27:57.224Z,101005.06
2023-03-21T00:29:06.228Z,101024.03
2023-03-21T00:30:12.986Z,101015.34
2023-03-21T00:31:23.009Z,101003.25
2023-03-21T00:32:26.750Z,101013.00
2023-03-21T00:33:30.653Z,100969.03
2023-03-21T00:34:43.587Z,101018.44
2023-03-21T00:36:01.870Z,101014.25
2023-03-21T00:37:06.858Z,101013.19
2023-03-21T00:38:10.864Z,101014.53
2023-03-21T00:39:14.525Z,101016.06
2023-03-21T00:40:27.907Z,101027.34
2023-03-21T00:41:42.917Z,101007.41
2023-03-21T00:42:46.702Z,101033.41
2023-03-21T00:43:50.492Z,101018.25
2023-03-21T00:44:54.152Z,101021.41
2023-03-21T00:45:59.990Z,101032.22
2023-03-21T00:47:07.478Z,100975.31
2023-03-21T00:48:12.050Z,101036.81
2023-03-21T00:49:15.706Z,100969.56
2023-03-21T00:50:19.559Z,100995.63
2023-03-21T00:51:24.872Z,101033.16
2023-03-21T00:52:40.316Z,101038.44
2023-03-21T00:53:44.866Z,101035.69
2023-03-21T00:54:48.648Z,101034.09
2023-03-21T00:55:52.240Z,101012.72
2023-03-21T00:56:55.929Z,101031.88
2023-03-21T00:58:02.071Z,101032.59
2023-03-21T00:59:06.217Z,101036.28
2023-03-21T01:00:11.350Z,101036.97
2023-03-21T01:01:16.655Z,101037.78
2023-03-21T01:02:20.500Z,101041.31
2023-03-21T01:03:25.622Z,101045.34
2023-03-21T01:04:29.675Z,101052.50
2023-03-21T01:05:35.656Z,101043.06
2023-03-21T01:06:40.389Z,101010.69
2023-03-21T01:07:44.049Z,101053.88
2023-03-21T01:08:52.693Z,101054.59
2023-03-21T01:09:57.092Z,101047.91
2023-03-21T01:11:04.873Z,101060.91
2023-03-21T01:12:08.586Z,101061.47
2023-03-21T01:13:13.767Z,101063.97
2023-03-21T01:14:22.944Z,101059.16
2023-03-21T01:15:27.110Z,101058.66
2023-03-21T01:16:33.050Z,101055.59
2023-03-21T01:17:36.850Z,101060.75
2023-03-21T01:18:42.334Z,101060.19
2023-03-21T01:19:52.134Z,101050.56
2023-03-21T01:20:57.289Z,101064.00
2023-03-21T01:22:01.093Z,101056.66
2023-03-21T01:23:04.838Z,101063.69
2023-03-21T01:24:09.303Z,101066.84
2023-03-21T01:25:22.324Z,101066.75
2023-03-21T01:26:26.726Z,101020.03
2023-03-21T01:27:30.404Z,101078.19
2023-03-21T01:28:35.471Z,101082.13
2023-03-21T01:29:39.091Z,101078.91
2023-03-21T01:30:46.950Z,101081.81
2023-03-21T01:31:52.377Z,101068.09
2023-03-21T01:32:56.020Z,101053.16
2023-03-21T01:33:59.654Z,101070.97
2023-03-21T01:35:03.403Z,101090.66
2023-03-21T01:36:12.985Z,101084.44
2023-03-21T01:37:17.205Z,101088.31
2023-03-21T01:38:20.912Z,101090.84
2023-03-21T01:39:24.716Z,101088.94
2023-03-21T01:40:28.717Z,101093.19
2023-03-21T01:41:42.356Z,101088.31
2023-03-21T01:42:47.038Z,101092.38
2023-03-21T01:43:50.678Z,101096.06
2023-03-21T01:44:56.606Z,101090.91
2023-03-21T01:46:46.208Z,101089.03
2023-03-21T01:47:54.800Z,101100.31
2023-03-21T01:49:02.657Z,101102.19
2023-03-21T01:50:06.792Z,101106.88
2023-03-21T01:51:12.256Z,101100.31
2023-03-21T01:52:33.343Z,101097.91
2023-03-21T01:53:41.120Z,101087.66
2023-03-21T01:54:45.547Z,101101.72
2023-03-21T01:55:49.686Z,101097.13
2023-03-21T01:56:55.714Z,101104.13
2023-03-21T01:58:07.962Z,101068.47
2023-03-21T01:59:14.761Z,101099.88
2023-03-21T02:00:18.947Z,101105.19
2023-03-21T02:01:23.170Z,101105.75
2023-03-21T02:02:29.802Z,101076.97
2023-03-21T02:03:36.428Z,101102.41
2023-03-21T02:04:40.945Z,101101.50
2023-03-21T02:05:55.661Z,101111.53
2023-03-21T02:07:01.887Z,101110.00
2023-03-21T02:08:05.609Z,101110.72
2023-03-21T02:09:12.843Z,101105.75
2023-03-21T02:10:18.041Z,101109.44
2023-03-21T02:11:22.799Z,101111.88
2023-03-21T02:12:27.309Z,101109.78
2023-03-21T02:13:31.014Z,101117.63
2023-03-21T02:14:37.056Z,101117.41
2023-03-21T02:15:45.882Z,101114.16
2023-03-21T02:16:57.264Z,101048.31
2023-03-21T02:18:06.881Z,101108.38
2023-03-21T02:19:41.536Z,101116.34
2023-03-21T02:21:10.403Z,101110.09
2023-03-21T02:22:46.884Z,101115.19
2023-03-21T02:24:12.207Z,101116.59
2023-03-21T02:25:59.354Z,101083.63
2023-03-21T02:27:10.647Z,101113.31
2023-03-21T02:28:19.746Z,101120.47
2023-03-21T02:29:42.703Z,101081.19
2023-03-21T02:31:23.512Z,101115.41
2023-03-21T02:32:41.207Z,101123.22
2023-03-21T02:34:33.991Z,101116.94
2023-03-21T02:36:00.577Z,101117.13
2023-03-21T02:37:18.020Z,101104.84
2023-03-21T02:38:28.446Z,101114.28
2023-03-21T02:39:48.874Z,101117.28
2023-03-21T02:41:10.095Z,101050.56
2023-03-21T02:42:22.679Z,101119.22
2023-03-21T02:43:33.278Z,101077.91
2023-03-21T02:44:44.919Z,101118.75
2023-03-21T02:45:54.031Z,101110.00
2023-03-21T02:47:06.530Z,101111.03
2023-03-21T02:48:25.587Z,101119.09
2023-03-21T02:49:46.348Z,101119.22
2023-03-21T02:50:53.004Z,101116.00
2023-03-21T02:52:08.520Z,101111.38
2023-03-21T02:53:25.476Z,101122.78
2023-03-21T02:54:47.012Z,101113.09
2023-03-21T02:55:53.429Z,101104.91
2023-03-21T02:56:59.806Z,101109.06
2023-03-21T02:58:12.867Z,101107.09
2023-03-21T02:59:19.181Z,101101.56
2023-03-21T03:00:25.686Z,101102.75
2023-03-21T03:01:29.452Z,101093.84
2023-03-21T03:02:33.555Z,101094.63
2023-03-21T03:03:37.282Z,101100.75
2023-03-21T03:04:40.983Z,101111.34
2023-03-21T03:05:49.396Z,101047.28
2023-03-21T03:07:20.494Z,101098.34
2023-03-21T03:08:52.904Z,101089.38
2023-03-21T03:10:26.743Z,101088.91
2023-03-21T03:11:33.183Z,101100.63
2023-03-21T03:12:45.446Z,101087.25
2023-03-21T03:14:02.100Z,101066.44
2023-03-21T03:15:19.388Z,101094.66
2023-03-21T03:16:29.274Z,101090.75
2023-03-21T03:17:45.989Z,101041.53
2023-03-21T03:18:56.464Z,101089.84
2023-03-21T03:20:16.970Z,101098.56
2023-03-21T03:21:25.949Z,101091.66
2023-03-21T03:22:39.244Z,101092.91
2023-03-21T03:23:48.989Z,101084.53
2023-03-21T03:24:59.602Z,101092.84
2023-03-21T03:26:10.794Z,101089.13
2023-03-21T03:27:18.520Z,101078.41
2023-03-21T03:28:27.298Z,101082.88
2023-03-21T03:29:33.744Z,101069.34
2023-03-21T03:30:46.628Z,101077.00
2023-03-21T03:31:59.498Z,101086.44
2023-03-21T03:33:07.148Z,101087.28
2023-03-21T03:34:14.180Z,101079.94
2023-03-21T03:35:20.897Z,101086.50
2023-03-21T03:36:32.851Z,101085.97
2023-03-21T03:37:39.392Z,101082.50
2023-03-21T03:38:47.375Z,101081.22
2023-03-21T03:39:56.500Z,101078.84
2023-03-21T03:41:06.643Z,101083.88
2023-03-21T03:42:27.517Z,101077.81
2023-03-21T03:43:38.595Z,101081.44
2023-03-21T03:44:42.841Z,101077.59
2023-03-21T03:45:51.363Z,101073.63
2023-03-21T03:47:01.338Z,101072.91
2023-03-21T03:48:13.450Z,101072.34
2023-03-21T03:49:21.842Z,101071.28
2023-03-21T03:50:30.836Z,101079.19
2023-03-21T03:51:39.973Z,101073.69
2023-03-21T03:52:56.048Z,101074.59
2023-03-21T03:54:07.714Z,101072.59
2023-03-21T03:55:15.221Z,101071.28
2023-03-21T03:56:19.120Z,101056.66
2023-03-21T03:57:23.237Z,101037.53
2023-03-21T03:58:39.434Z,101066.28
2023-03-21T03:59:48.637Z,101063.00
2023-03-21T04:00:53.155Z,101057.28
2023-03-21T04:01:56.801Z,101066.69
2023-03-21T04:03:01.296Z,101053.19
2023-03-21T04:04:12.975Z,101064.03
2023-03-21T04:05:17.607Z,101060.97
2023-03-21T04:06:21.349Z,101065.94
2023-03-21T04:07:24.956Z,101053.91
2023-03-21T04:08:28.679Z,101039.94
2023-03-21T04:09:43.571Z,101001.34
2023-03-21T04:10:48.080Z,101046.03
2023-03-21T04:11:51.914Z,101044.97
2023-03-21T04:12:55.518Z,101047.97
2023-03-21T04:13:59.159Z,101047.16
2023-03-21T04:15:10.057Z,101044.50
2023-03-21T04:16:14.595Z,101045.53
2023-03-21T04:17:18.892Z,101045.91
2023-03-21T04:18:22.792Z,101039.84
2023-03-21T04:19:27.170Z,101044.91
2023-03-21T04:20:37.091Z,101039.25
2023-03-21T04:21:41.145Z,101040.78
2023-03-21T04:22:45.000Z,101042.16
2023-03-21T04:23:48.770Z,101038.56
2023-03-21T04:24:54.024Z,101044.84
2023-03-21T04:25:57.740Z,101037.78
2023-03-21T04:27:01.452Z,101009.91
2023-03-21T04:28:05.538Z,101028.06
2023-03-21T04:29:09.144Z,101030.81
2023-03-21T04:30:13.636Z,101022.25
2023-03-21T04:31:25.619Z,101035.56
2023-03-21T04:32:29.749Z,101028.94
2023-03-21T04:33:33.446Z,101025.63
2023-03-21T04:34:37.167Z,101024.56
2023-03-21T04:35:40.815Z,101026.88
2023-03-21T04:36:44.639Z,101027.69
2023-03-21T04:37:48.350Z,101015.34
2023-03-21T04:38:52.263Z,101010.00
2023-03-21T04:39:57.534Z,101020.72
2023-03-21T04:41:01.972Z,101011.59
2023-03-21T04:42:06.352Z,100976.91
2023-03-21T04:43:10.047Z,101008.81
2023-03-21T04:44:15.509Z,101007.13
2023-03-21T04:45:19.356Z,101013.47
2023-03-21T04:46:23.136Z,101009.25
2023-03-21T04:47:26.945Z,101003.28
2023-03-21T04:48:30.549Z,101008.72
2023-03-21T04:49:34.362Z,101003.63
2023-03-21T04:50:38.259Z,101000.22
2023-03-21T04:51:42.488Z,100999.78
2023-03-21T04:52:46.172Z,100994.59
2023-03-21T04:53:49.813Z,100992.22
2023-03-21T04:54:53.532Z,100995.88
2023-03-21T04:55:58.785Z,100998.59
2023-03-21T04:57:02.454Z,100989.28
2023-03-21T04:58:06.266Z,100995.47
2023-03-21T04:59:13.040Z,100991.25
2023-03-21T05:00:17.414Z,100990.91
2023-03-21T05:01:21.108Z,100988.03
2023-03-21T05:02:24.876Z,100985.09
2023-03-21T05:03:28.628Z,100988.84
2023-03-21T05:04:32.662Z,100941.97
2023-03-21T05:05:37.184Z,100987.84
2023-03-21T05:06:41.311Z,100953.19
2023-03-21T05:07:44.925Z,100976.84
2023-03-21T05:08:48.655Z,100983.34
2023-03-21T05:09:52.535Z,100986.13
2023-03-21T05:10:57.822Z,100985.69
2023-03-21T05:12:01.698Z,100974.31
2023-03-21T05:13:05.475Z,100978.69
2023-03-21T05:14:10.992Z,100975.41
2023-03-21T05:15:14.757Z,100979.63
2023-03-21T05:16:18.596Z,100977.00
2023-03-21T05:17:22.374Z,100963.84
2023-03-21T05:18:26.089Z,100963.53
2023-03-21T05:19:31.591Z,100970.22
2023-03-21T05:20:35.284Z,100960.19
2023-03-21T05:21:38.956Z,100953.34
2023-03-21T05:22:42.683Z,100954.28
2023-03-21T05:23:46.359Z,100949.84
2023-03-21T05:24:50.055Z,100957.50
2023-03-21T05:25:53.746Z,100946.50
2023-03-21T05:27:01.234Z,100949.06
2023-03-21T05:28:06.060Z,100944.47
2023-03-21T05:29:10.812Z,100942.25
2023-03-21T05:30:16.714Z,100945.50
2023-03-21T05:31:21.049Z,100953.53
2023-03-21T05:32:24.772Z,100939.88
2023-03-21T05:33:28.389Z,100940.53
2023-03-21T05:34:31.986Z,100933.91
2023-03-21T05:35:35.956Z,100921.88
2023-03-21T05:36:39.849Z,100931.13
2023-03-21T05:37:43.606Z,100904.44
2023-03-21T05:38:47.275Z,100940.75
2023-03-21T05:39:50.988Z,100935.72
2023-03-21T05:40:55.679Z,100921.63
2023-03-21T05:42:00.942Z,100918.78
2023-03-21T05:43:04.634Z,100936.28
2023-03-21T05:44:08.345Z,100924.94
2023-03-21T05:45:12.743Z,100925.00
2023-03-21T05:46:16.484Z,100921.09
2023-03-21T05:47:20.643Z,100917.69
2023-03-21T05:48:24.304Z,100925.03
2023-03-21T05:49:27.964Z,100915.66
2023-03-21T05:50:31.696Z,100888.78
2023-03-21T05:51:35.401Z,100912.22
2023-03-21T05:52:38.978Z,100869.56
2023-03-21T05:53:42.673Z,100909.38
2023-03-21T05:54:46.515Z,100901.94
2023-03-21T05:55:50.345Z,100897.06
2023-03-21T05:56:54.088Z,100894.41
2023-03-21T05:57:59.371Z,100892.19
2023-03-21T05:59:03.073Z,100878.00
2023-03-21T06:00:08.447Z,100854.03
2023-03-21T06:01:12.196Z,100880.28
2023-03-21T06:02:15.980Z,100883.88
2023-03-21T06:03:27.528Z,100890.25
2023-03-21T06:04:31.327Z,100882.38
2023-03-21T06:05:35.268Z,100883.25
2023-03-21T06:06:39.080Z,100884.00
2023-03-21T06:07:42.868Z,100873.56
2023-03-21T06:08:46.529Z,100881.28
2023-03-21T06:09:50.224Z,100880.78
2023-03-21T06:10:53.892Z,100874.00
2023-03-21T06:11:58.454Z,100871.34
2023-03-21T06:13:03.827Z,100861.59
2023-03-21T06:14:07.501Z,100843.94
2023-03-21T06:15:12.327Z,100852.25
2023-03-21T06:16:15.960Z,100825.78
2023-03-21T06:17:19.574Z,100859.47
2023-03-21T06:18:23.314Z,100826.88
2023-03-21T06:19:26.967Z,100846.84
2023-03-21T06:20:30.689Z,100833.44
2023-03-21T06:21:34.573Z,100850.97
2023-03-21T06:22:38.564Z,100842.69
2023-03-21T06:23:42.239Z,100839.06
2023-03-21T06:24:45.943Z,100831.59
2023-03-21T06:25:50.205Z,100833.16
2023-03-21T06:26:53.852Z,100812.97
2023-03-21T06:27:57.478Z,100825.59
2023-03-21T06:29:02.919Z,100818.13
2023-03-21T06:30:07.692Z,100808.69
2023-03-21T06:31:11.424Z,100811.94
2023-03-21T06:32:15.155Z,100814.81
2023-03-21T06:33:18.755Z,100814.00
2023-03-21T06:34:22.356Z,100802.03
2023-03-21T06:35:26.011Z,100808.75
2023-03-21T06:36:29.660Z,100810.22
2023-03-21T06:37:33.412Z,100800.00
2023-03-21T06:38:37.081Z,100798.09
2023-03-21T06:39:40.798Z,100792.97
2023-03-21T06:40:46.075Z,100791.13
2023-03-21T06:41:49.784Z,100747.72
2023-03-21T06:42:53.495Z,100777.41
2023-03-21T06:43:57.125Z,100790.56
2023-03-21T06:45:02.603Z,100777.81
2023-03-21T06:46:06.850Z,100778.78
2023-03-21T06:47:10.550Z,100770.16
2023-03-21T06:48:14.297Z,100774.19
2023-03-21T06:49:18.268Z,100775.09
2023-03-21T06:50:21.899Z,100772.50
2023-03-21T06:51:25.595Z,100772.47
2023-03-21T06:52:29.224Z,100772.47
2023-03-21T06:53:33.568Z,100770.00
2023-03-21T06:54:38.345Z,100772.72
2023-03-21T06:55:42.045Z,100771.41
2023-03-21T06:56:45.978Z,100729.69
2023-03-21T06:57:49.627Z,100763.78
2023-03-21T06:58:53.287Z,100767.72
2023-03-21T06:59:57.025Z,100767.47
2023-03-21T07:01:03.104Z,100765.84
2023-03-21T07:02:06.920Z,100754.50
2023-03-21T07:03:10.610Z,100761.78
2023-03-21T07:04:14.238Z,100741.56
2023-03-21T07:05:18.465Z,100750.84
2023-03-21T07:06:22.112Z,100747.91
2023-03-21T07:07:26.986Z,100745.22
2023-03-21T07:08:30.594Z,100737.22
2023-03-21T07:09:34.297Z,100739.63
2023-03-21T07:10:40.441Z,100736.59
2023-03-21T07:11:44.242Z,100746.63
2023-03-21T07:12:47.940Z,100731.59
2023-03-21T07:13:52.178Z,100731.41
2023-03-21T07:14:55.940Z,100734.13
2023-03-21T07:16:01.244Z,100731.59
2023-03-21T07:17:04.913Z,100732.06
2023-03-21T07:18:10.098Z,100735.34
2023-03-21T07:19:13.732Z,100734.91
2023-03-21T07:20:17.718Z,100719.19
2023-03-21T07:21:21.493Z,100730.84
2023-03-21T07:22:25.184Z,100728.56
2023-03-21T07:23:29.378Z,100730.63
2023-03-21T07:24:33.022Z,100728.50
2023-03-21T07:25:36.860Z,100732.69
2023-03-21T07:26:40.845Z,100724.56
2023-03-21T07:27:44.662Z,100732.75
2023-03-21T07:28:48.353Z,100723.81
2023-03-21T07:29:52.017Z,100733.22
2023-03-21T07:30:57.038Z,100718.06
2023-03-21T07:32:02.345Z,100722.81
2023-03-21T07:33:06.571Z,100718.25
2023-03-21T07:34:10.202Z,100721.06
2023-03-21T07:35:15.650Z,100705.72
2023-03-21T07:36:19.412Z,100716.66
2023-03-21T07:37:23.411Z,100707.72
2023-03-21T07:38:28.070Z,100704.56
2023-03-21T07:39:31.735Z,100703.94
2023-03-21T07:40:35.607Z,100710.84
2023-03-21T07:41:39.371Z,100695.25
2023-03-21T07:42:43.438Z,100700.38
2023-03-21T07:43:47.139Z,100699.97
2023-03-21T07:44:50.773Z,100696.16
2023-03-21T07:45:58.378Z,100695.50
2023-03-21T07:47:03.861Z,100694.84
2023-03-21T07:48:07.851Z,100657.00
2023-03-21T07:49:11.528Z,100694.28
2023-03-21T07:50:15.686Z,100688.81
2023-03-21T07:51:19.408Z,100688.03
2023-03-21T07:52:23.006Z,100684.88
2023-03-21T07:53:26.672Z,100688.56
2023-03-21T07:54:30.432Z,100693.47
2023-03-21T07:55:34.094Z,100686.00
2023-03-21T07:56:37.864Z,100686.75
2023-03-21T07:57:41.692Z,100693.28
2023-03-21T07:58:45.450Z,100677.91
2023-03-21T07:59:49.141Z,100647.50
2023-03-21T08:00:53.374Z,100681.94
2023-03-21T08:01:57.028Z,100680.25
2023-03-21T08:03:02.501Z,100681.53
2023-03-21T08:04:06.734Z,100678.47
2023-03-21T08:05:10.835Z,100674.00
2023-03-21T08:06:14.494Z,100682.13
2023-03-21T08:07:18.066Z,100679.16
2023-03-21T08:08:21.987Z,100675.00
2023-03-21T08:09:25.607Z,100660.81
2023-03-21T08:10:29.461Z,100676.41
2023-03-21T08:11:33.205Z,100663.06
2023-03-21T08:12:36.881Z,100665.31
2023-03-21T08:13:40.594Z,100661.41
2023-03-21T08:14:44.447Z,100657.38
2023-03-21T08:15:48.328Z,100652.56
2023-03-21T08:16:52.190Z,100652.88
2023-03-21T08:17:55.932Z,100646.44
2023-03-21T08:19:01.217Z,100651.56
2023-03-21T08:20:05.465Z,100643.78
2023-03-21T08:21:09.758Z,100644.06
2023-03-21T08:22:13.426Z,100610.19
2023-03-21T08:23:17.092Z,100634.19
2023-03-21T08:24:21.179Z,100632.69
2023-03-21T08:25:24.814Z,100625.94
2023-03-21T08:26:28.493Z,100631.19
2023-03-21T08:27:32.232Z,100622.19
2023-03-21T08:28:35.847Z,100619.34
2023-03-21T08:29:39.613Z,100623.22
2023-03-21T08:30:43.309Z,100627.66
2023-03-21T08:31:46.921Z,100620.28
2023-03-21T08:32:50.869Z,100623.13
2023-03-21T08:33:54.636Z,100625.63
2023-03-21T08:35:02.224Z,100612.53
2023-03-21T08:36:07.383Z,100605.75
2023-03-21T08:37:11.178Z,100622.91
2023-03-21T08:38:14.864Z,100619.34
2023-03-21T08:39:18.664Z,100613.03
2023-03-21T08:40:22.866Z,100601.09
2023-03-21T08:41:26.663Z,100611.00
2023-03-21T08:42:30.362Z,100607.06
2023-03-21T08:43:34.011Z,100607.00
2023-03-21T08:44:37.793Z,100611.00
2023-03-21T08:45:41.521Z,100597.63
2023-03-21T08:46:45.222Z,100597.28
2023-03-21T08:47:49.101Z,100597.69
2023-03-21T08:48:52.785Z,100599.13
2023-03-21T08:49:58.688Z,100600.72
2023-03-21T08:51:04.498Z,100604.38
2023-03-21T08:52:08.167Z,100596.78
2023-03-21T08:53:11.960Z,100602.97
2023-03-21T08:54:21.392Z,100595.91
2023-03-21T08:55:25.154Z,100589.88
2023-03-21T08:56:28.889Z,100598.75
2023-03-21T08:57:32.788Z,100561.06
2023-03-21T08:58:39.581Z,100587.91
2023-03-21T08:59:47.926Z,100542.53
2023-03-21T09:00:51.766Z,100572.59
2023-03-21T09:01:55.515Z,100575.59
2023-03-21T09:02:59.319Z,100582.75
2023-03-21T09:04:02.998Z,100529.06
2023-03-21T09:05:07.280Z,100577.06
2023-03-21T09:06:14.609Z,100551.25
2023-03-21T09:07:18.347Z,100570.97
2023-03-21T09:08:22.090Z,100571.59
2023-03-21T09:09:25.829Z,100547.53
2023-03-21T09:10:30.210Z,100565.63
2023-03-21T09:11:34.024Z,100585.09
2023-03-21T09:12:37.899Z,100579.53
2023-03-21T09:13:41.625Z,100568.66
2023-03-21T09:14:45.459Z,100575.25
2023-03-21T09:15:49.277Z,100564.50
2023-03-21T09:16:53.004Z,100572.66
2023-03-21T09:17:56.908Z,100527.44
2023-03-21T09:19:01.164Z,100543.94
2023-03-21T09:20:05.336Z,100566.19
2023-03-21T09:21:12.835Z,100562.91
2023-03-21T09:22:16.663Z,100558.16
2023-03-21T09:23:20.291Z,100549.53
2023-03-21T09:24:24.114Z,100557.81
2023-03-21T09:25:27.836Z,100568.75
2023-03-21T09:26:31.536Z,100569.63
2023-03-21T09:27:35.517Z,100576.44
2023-03-21T09:28:39.357Z,100575.25
2023-03-21T09:29:43.138Z,100568.47
2023-03-21T09:30:46.812Z,100568.53
2023-03-21T09:31:50.544Z,100550.44
2023-03-21T09:32:54.378Z,100566.88
2023-03-21T09:33:58.502Z,100559.13
2023-03-21T09:35:02.242Z,100559.25
2023-03-21T09:36:06.466Z,100555.47
2023-03-21T09:37:11.947Z,100556.22
2023-03-21T09:38:15.633Z,100550.53
2023-03-21T09:39:19.315Z,100555.84
2023-03-21T09:40:32.112Z,100556.63
2023-03-21T09:41:48.720Z,100553.91
2023-03-21T09:43:03.234Z,100554.38
2023-03-21T09:44:24.120Z,100563.66
2023-03-21T09:45:37.209Z,100563.34
2023-03-21T09:46:46.747Z,100523.09
2023-03-21T09:47:51.486Z,100564.16
2023-03-21T09:49:00.582Z,100570.22
2023-03-21T09:50:14.755Z,100559.63
2023-03-21T09:51:22.073Z,100570.34
2023-03-21T09:52:34.326Z,100547.03
2023-03-21T09:53:42.747Z,100552.59
2023-03-21T09:54:46.618Z,100554.38
2023-03-21T09:55:50.659Z,100559.69
2023-03-21T09:56:56.415Z,100566.56
2023-03-21T09:58:07.623Z,100508.38
2023-03-21T09:59:22.060Z,100568.59
2023-03-21T10:00:31.665Z,100572.25
2023-03-21T10:01:37.773Z,100572.59
2023-03-21T10:02:43.674Z,100563.31
2023-03-21T10:03:47.405Z,100571.72
2023-03-21T10:04:51.151Z,100578.53
2023-03-21T10:05:56.158Z,100568.69
2023-03-21T10:07:03.021Z,100563.53
2023-03-21T10:08:18.360Z,100563.69
2023-03-21T10:09:23.880Z,100574.34
2023-03-21T10:10:31.942Z,100577.63
2023-03-21T10:11:44.285Z,100563.22
2023-03-21T10:12:51.244Z,100571.78
2023-03-21T10:13:57.033Z,100564.47
2023-03-21T10:15:03.030Z,100573.19
2023-03-21T10:16:15.397Z,100583.56
2023-03-21T10:17:27.698Z,100588.69
2023-03-21T10:18:32.729Z,100575.66
2023-03-21T10:19:36.532Z,100583.25
2023-03-21T10:20:42.770Z,100563.19
2023-03-21T10:22:00.932Z,100580.59
2023-03-21T10:23:07.994Z,100570.84
2023-03-21T10:24:17.312Z,100574.09
2023-03-21T10:25:23.121Z,100574.84
2023-03-21T10:26:29.512Z,100571.28
2023-03-21T10:27:34.150Z,100582.25
2023-03-21T10:28:52.470Z,100570.59
2023-03-21T10:29:57.002Z,100580.72
2023-03-21T10:31:03.644Z,100570.69
2023-03-21T10:32:10.144Z,100580.72
2023-03-21T10:33:18.462Z,100573.50
2023-03-21T10:34:29.285Z,100572.31
2023-03-21T10:35:34.832Z,100572.91
2023-03-21T10:36:41.635Z,100558.06
2023-03-21T10:37:45.548Z,100559.31
2023-03-21T10:38:52.248Z,100573.75
2023-03-21T10:39:57.808Z,100571.09
2023-03-21T10:41:01.663Z,100582.44
2023-03-21T10:42:05.840Z,100543.75
2023-03-21T10:43:34.544Z,100579.91
2023-03-21T10:44:38.351Z,100570.00
2023-03-21T10:45:42.086Z,100581.16
2023-03-21T10:46:53.211Z,100575.44
2023-03-21T10:47:57.228Z,100568.34
2023-03-21T10:49:01.070Z,100579.38
2023-03-21T10:50:08.982Z,100575.88
2023-03-21T10:51:20.033Z,100577.94
2023-03-21T10:52:28.219Z,100547.94
2023-03-21T10:53:35.825Z,100574.47
2023-03-21T10:54:39.740Z,100574.56
2023-03-21T10:55:47.577Z,100558.97
2023-03-21T10:56:58.639Z,100545.53
2023-03-21T10:58:06.587Z,100573.50
2023-03-21T10:59:15.451Z,100575.25
2023-03-21T11:00:22.933Z,100543.69
2023-03-21T11:01:30.894Z,100572.56
2023-03-21T11:02:37.799Z,100577.94
2023-03-21T11:03:44.380Z,100581.09
2023-03-21T11:04:48.634Z,100576.50
2023-03-21T11:05:56.784Z,100577.22
2023-03-21T11:07:03.796Z,100578.78
2023-03-21T11:08:13.131Z,100579.41
2023-03-21T11:09:18.585Z,100578.25
2023-03-21T11:10:30.279Z,100576.41
2023-03-21T11:11:40.444Z,100578.91
2023-03-21T11:12:49.009Z,100582.09
2023-03-21T11:13:59.112Z,100577.63
2023-03-21T11:15:26.386Z,100579.75
2023-03-21T11:16:38.478Z,100585.75
2023-03-21T11:17:43.265Z,100588.41
2023-03-21T11:18:51.432Z,100584.16
2023-03-21T11:19:58.426Z,100587.53
2023-03-21T11:21:06.188Z,100584.88
2023-03-21T11:22:12.206Z,100594.22
2023-03-21T11:23:16.145Z,100594.13
2023-03-21T11:24:20.841Z,100594.41
2023-03-21T11:25:39.262Z,100595.56
2023-03-21T11:26:46.512Z,100574.84
2023-03-21T11:27:51.256Z,100608.34
2023-03-21T11:28:55.946Z,100602.44
2023-03-21T11:30:01.614Z,100604.25
2023-03-21T11:31:06.808Z,100604.56
2023-03-21T11:32:20.536Z,100611.84
2023-03-21T11:33:27.041Z,100549.91
2023-03-21T11:34:39.896Z,100608.66
2023-03-21T11:35:43.605Z,100614.31
2023-03-21T11:36:52.392Z,100587.06
2023-03-21T11:37:57.326Z,100615.59
2023-03-21T11:39:13.164Z,100618.63
2023-03-21T11:40:22.608Z,100623.03
2023-03-21T11:41:29.949Z,100574.28
2023-03-21T11:42:43.650Z,100625.94
2023-03-21T11:43:53.648Z,100624.03
2023-03-21T11:45:04.100Z,100632.94
2023-03-21T11:46:10.113Z,100630.47
2023-03-21T11:47:13.801Z,100603.56
2023-03-21T11:48:17.532Z,100641.69
2023-03-21T11:49:22.412Z,100638.41
2023-03-21T11:50:31.998Z,100604.78
2023-03-21T11:51:41.962Z,100641.69
2023-03-21T11:52:57.094Z,100639.78
2023-03-21T11:54:10.063Z,100632.44
2023-03-21T11:55:33.174Z,100647.00
2023-03-21T11:56:41.397Z,100643.38
2023-03-21T11:58:05.263Z,100644.16
2023-03-21T11:59:24.185Z,100645.59
2023-03-21T12:00:36.553Z,100643.03
2023-03-21T12:01:53.213Z,100638.56
2023-03-21T12:03:30.691Z,100642.22
2023-03-21T12:04:41.543Z,100654.22
2023-03-21T12:05:53.367Z,100651.16
2023-03-21T12:07:02.639Z,100650.31
2023-03-21T12:08:18.554Z,100662.34
2023-03-21T12:09:35.830Z,100622.81
2023-03-21T12:10:45.955Z,100662.50
2023-03-21T12:12:03.810Z,100663.69
2023-03-21T12:13:21.724Z,100667.53
2023-03-21T12:14:32.154Z,100667.88
2023-03-21T12:15:42.067Z,100649.06
2023-03-21T12:16:57.495Z,100679.59
2023-03-21T12:18:11.602Z,100683.94
2023-03-21T12:19:33.828Z,100686.19
2023-03-21T12:20:42.300Z,100687.81
2023-03-21T12:21:55.091Z,100691.06
2023-03-21T12:23:14.088Z,100689.09
2023-03-21T12:24:21.681Z,100704.19
2023-03-21T12:25:30.030Z,100705.22
2023-03-21T12:26:38.493Z,100708.78
2023-03-21T12:27:49.592Z,100712.56
2023-03-21T12:29:11.745Z,100706.34
2023-03-21T12:30:32.740Z,100715.50
2023-03-21T12:31:49.807Z,100718.53
2023-03-21T12:33:12.416Z,100721.78
2023-03-21T12:34:32.299Z,100739.00
2023-03-21T12:36:05.432Z,100741.13
2023-03-21T12:37:18.361Z,100742.22
2023-03-21T12:38:26.126Z,100733.50
2023-03-21T12:39:31.755Z,100743.19
2023-03-21T12:40:50.572Z,100752.00
2023-03-21T12:42:09.306Z,100759.59
2023-03-21T12:43:27.192Z,100753.44
2023-03-21T12:44:35.913Z,100758.81
2023-03-21T12:45:47.261Z,100757.78
2023-03-21T12:46:58.073Z,100758.09
2023-03-21T12:48:14.459Z,100756.53
2023-03-21T12:49:24.409Z,100755.72
2023-03-21T12:50:32.505Z,100770.00